Terminal Aerodrome Forecast
Issued by NWS Twin Cities, MN

Home | Current Version | Previous Version | Graphics & Text | Print | Product List | Glossary On
Versions: 1 2 3 4 5 6 7 8 9 10 11 12 13
000
FTUS43 KMPX 270500
TAFEAU
TAF
KEAU 270520Z 2706/2806 25004KT 6SM BR SCT050
      TEMPO 2706/2709 2SM BR FEW005
     FM271000 26005KT P6SM SCT090
     FM271400 29012KT P6SM SCT045 OVC070
     FM271700 32013G20KT P6SM -SHRA BKN030 OVC045
     FM272000 35014G22KT P6SM -SHRA SCT030 OVC045
     FM280000 36008KT P6SM VCSH SCT035 BKN050=

USA.gov is the U.S. government's official web portal to all federal, state and local government web resources and services.